^^
Meteo Knjazevac Station Historical Data
Daily Summary for March 5, 2021 Units:  Both    English   Metric
Daily Weekly Monthly Yearly Custom
  High: Low: Average:
Temperature: 54.3 °F /  12.4 °C 47.8 °F /  8.8 °C 50 °F /  10 °C
Dew Point: 51.4 °F /  10.8 °C 46.8 °F /  8.2 °C 48.5 °F /  9.2 °C
Humidity: 98% 90% 95%
Wind Speed: 2mph /  3.2km/h - 1.2mph /  1.9km/h
Wind Gust: 5mph /  8km/h - -
Wind- - WNW
Pressure: 30.29 in /  1025.6 hPa 30.27 in /  1024.9 hPa -
Precipitation: 0.00 in /  0 mm    
Historical Graphs
 
 
Tabular Data for March 5, 2021
Time Temperature Dew Point Pressure Wind Wind Speed Wind Gust Humidity Rainfall Rate (Hourly) solar Conditions
00:00 54.3 °F /  12.4 °C 51.4 °F /  10.8 °C 30.29in /  1025.6hPa WSW 1mph /  1.6km/h 4mph /  6.4km/h 90% 0.00in /  0mm 0 W/m2
00:10 53.8 °F /  12.1 °C 50.9 °F /  10.5 °C 30.29in /  1025.6hPa West 1mph /  1.6km/h 4mph /  6.4km/h 90% 0.00in /  0mm 0 W/m2
00:20 53.4 °F /  11.9 °C 50.9 °F /  10.5 °C 30.29in /  1025.6hPa West 1mph /  1.6km/h 4mph /  6.4km/h 91% 0.00in /  0mm 0 W/m2
00:30 53.4 °F /  11.9 °C 50.9 °F /  10.5 °C 30.29in /  1025.6hPa Calm   2mph /  3.2km/h 91% 0.00in /  0mm 0 W/m2
00:40 53.2 °F /  11.8 °C 50.7 °F /  10.4 °C 30.28in /  1025.3hPa Calm   2mph /  3.2km/h 91% 0.00in /  0mm 0 W/m2
00:50 53.1 °F /  11.7 °C 51.1 °F /  10.6 °C 30.28in /  1025.3hPa Calm   2mph /  3.2km/h 93% 0.00in /  0mm 0 W/m2
01:00 52.7 °F /  11.5 °C 50.7 °F /  10.4 °C 30.28in /  1025.3hPa Calm   2mph /  3.2km/h 93% 0.00in /  0mm 0 W/m2
01:10 52.2 °F /  11.2 °C 49.6 °F /  9.8 °C 30.28in /  1025.3hPa WSW 2mph /  3.2km/h 3mph /  4.8km/h 91% 0.00in /  0mm 0 W/m2
01:20 51.8 °F /  11 °C 49.8 °F /  9.9 °C 30.28in /  1025.3hPa NW 1mph /  1.6km/h 3mph /  4.8km/h 93% 0.00in /  0mm 0 W/m2
01:30 51.4 °F /  10.8 °C 49.5 °F /  9.7 °C 30.28in /  1025.3hPa Calm   3mph /  4.8km/h 93% 0.00in /  0mm 0 W/m2
01:40 51.1 °F /  10.6 °C 49.1 °F /  9.5 °C 30.28in /  1025.3hPa West 1mph /  1.6km/h 2mph /  3.2km/h 93% 0.00in /  0mm 0 W/m2
01:50 50.7 °F /  10.4 °C 49.1 °F /  9.5 °C 30.28in /  1025.3hPa NW 1mph /  1.6km/h 2mph /  3.2km/h 94% 0.00in /  0mm 0 W/m2
02:00 50.5 °F /  10.3 °C 48.9 °F /  9.4 °C 30.28in /  1025.3hPa Calm   3mph /  4.8km/h 94% 0.00in /  0mm 0 W/m2
02:10 50.2 °F /  10.1 °C 48.5 °F /  9.2 °C 30.28in /  1025.3hPa West 2mph /  3.2km/h 2mph /  3.2km/h 94% 0.00in /  0mm 0 W/m2
02:20 50 °F /  10 °C 48.3 °F /  9.1 °C 30.28in /  1025.3hPa WSW 1mph /  1.6km/h 2mph /  3.2km/h 94% 0.00in /  0mm 0 W/m2
02:30 49.5 °F /  9.7 °C 47.8 °F /  8.8 °C 30.28in /  1025.3hPa Calm   2mph /  3.2km/h 94% 0.00in /  0mm 0 W/m2
02:40 49.5 °F /  9.7 °C 48.1 °F /  8.9 °C 30.28in /  1025.3hPa West 2mph /  3.2km/h 3mph /  4.8km/h 95% 0.00in /  0mm 0 W/m2
02:50 49.4 °F /  9.7 °C 48.1 °F /  8.9 °C 30.28in /  1025.3hPa NW 2mph /  3.2km/h 3mph /  4.8km/h 95% 0.00in /  0mm 0 W/m2
03:00 49.3 °F /  9.6 °C 47.9 °F /  8.8 °C 30.28in /  1025.3hPa West 2mph /  3.2km/h 3mph /  4.8km/h 95% 0.00in /  0mm 0 W/m2
03:10 49.1 °F /  9.5 °C 47.7 °F /  8.7 °C 30.28in /  1025.3hPa WNW 2mph /  3.2km/h 4mph /  6.4km/h 95% 0.00in /  0mm 0 W/m2
03:20 49.3 °F /  9.6 °C 48.2 °F /  9 °C 30.28in /  1025.3hPa WNW 1mph /  1.6km/h 3mph /  4.8km/h 96% 0.00in /  0mm 0 W/m2
03:30 49.1 °F /  9.5 °C 47.7 °F /  8.7 °C 30.28in /  1025.3hPa NW 2mph /  3.2km/h 3mph /  4.8km/h 95% 0.00in /  0mm 0 W/m2
03:40 48.9 °F /  9.4 °C 47.6 °F /  8.7 °C 30.28in /  1025.3hPa NW 1mph /  1.6km/h 3mph /  4.8km/h 95% 0.00in /  0mm 0 W/m2
03:50 48.7 °F /  9.3 °C 47.4 °F /  8.6 °C 30.28in /  1025.3hPa NW 2mph /  3.2km/h 2mph /  3.2km/h 95% 0.00in /  0mm 0 W/m2
04:00 48.6 °F /  9.2 °C 47.2 °F /  8.4 °C 30.28in /  1025.3hPa WNW 2mph /  3.2km/h 3mph /  4.8km/h 95% 0.00in /  0mm 0 W/m2
04:10 48.6 °F /  9.2 °C 47.5 °F /  8.6 °C 30.28in /  1025.3hPa WNW 2mph /  3.2km/h 3mph /  4.8km/h 96% 0.00in /  0mm 0 W/m2
04:20 48.4 °F /  9.1 °C 47.3 °F /  8.5 °C 30.28in /  1025.3hPa West 2mph /  3.2km/h 4mph /  6.4km/h 96% 0.00in /  0mm 0 W/m2
04:30 48.4 °F /  9.1 °C 47.3 °F /  8.5 °C 30.28in /  1025.3hPa Calm   3mph /  4.8km/h 96% 0.00in /  0mm 0 W/m2
04:40 48.4 °F /  9.1 °C 47.8 °F /  8.8 °C 30.28in /  1025.3hPa West 2mph /  3.2km/h 3mph /  4.8km/h 98% 0.00in /  0mm 0 W/m2
04:50 48.2 °F /  9 °C 47.1 °F /  8.4 °C 30.28in /  1025.3hPa WNW 2mph /  3.2km/h 3mph /  4.8km/h 96% 0.00in /  0mm 3 W/m2
05:00 48.4 °F /  9.1 °C 47.8 °F /  8.8 °C 30.28in /  1025.3hPa West 2mph /  3.2km/h 3mph /  4.8km/h 98% 0.00in /  0mm 7 W/m2
05:10 48 °F /  8.9 °C 47.5 °F /  8.6 °C 30.28in /  1025.3hPa West 2mph /  3.2km/h 4mph /  6.4km/h 98% 0.00in /  0mm 15 W/m2
05:20 48.2 °F /  9 °C 47.7 °F /  8.7 °C 30.27in /  1024.9hPa West 1mph /  1.6km/h 3mph /  4.8km/h 98% 0.00in /  0mm 23 W/m2
05:30 47.8 °F /  8.8 °C 46.8 °F /  8.2 °C 30.27in /  1024.9hPa West 2mph /  3.2km/h 5mph /  8km/h 96% 0.00in /  0mm 31 W/m2
05:40 47.8 °F /  8.8 °C 47.3 °F /  8.5 °C 30.27in /  1024.9hPa WNW 1mph /  1.6km/h 5mph /  8km/h 98% 0.00in /  0mm 38 W/m2
05:50 47.8 °F /  8.8 °C 47.3 °F /  8.5 °C 30.27in /  1024.9hPa West 2mph /  3.2km/h 3mph /  4.8km/h 98% 0.00in /  0mm 45 W/m2
06:00 47.8 °F /  8.8 °C 47.3 °F /  8.5 °C 30.27in /  1024.9hPa NW 1mph /  1.6km/h 4mph /  6.4km/h 98% 0.00in /  0mm 51 W/m2
Knjazevac, Serbia
Compliments of Weather Underground - 2 mb